sensor_id;sensor_type;location;lat;lon;timestamp;temperature;humidity
5711;DHT22;61291;52.524;13.422;2022-11-15T00:01:09;5.30;99.90
5711;DHT22;61291;52.524;13.422;2022-11-15T00:03:35;5.30;99.90
5711;DHT22;61291;52.524;13.422;2022-11-15T00:06:04;5.30;99.90
5711;DHT22;61291;52.524;13.422;2022-11-15T00:08:31;5.30;99.90
5711;DHT22;61291;52.524;13.422;2022-11-15T00:10:58;5.40;99.90
5711;DHT22;61291;52.524;13.422;2022-11-15T00:13:24;5.40;99.90
5711;DHT22;61291;52.524;13.422;2022-11-15T00:15:50;5.30;99.90
5711;DHT22;61291;52.524;13.422;2022-11-15T00:18:16;5.30;99.90
5711;DHT22;61291;52.524;13.422;2022-11-15T00:20:42;5.30;99.90
5711;DHT22;61291;52.524;13.422;2022-11-15T00:23:08;5.30;99.90
5711;DHT22;61291;52.524;13.422;2022-11-15T00:25:33;5.30;99.90
5711;DHT22;61291;52.524;13.422;2022-11-15T00:28:00;5.30;99.90
5711;DHT22;61291;52.524;13.422;2022-11-15T00:30:26;5.30;99.90
5711;DHT22;61291;52.524;13.422;2022-11-15T00:32:52;5.20;99.90
5711;DHT22;61291;52.524;13.422;2022-11-15T00:35:18;5.30;99.90
5711;DHT22;61291;52.524;13.422;2022-11-15T00:37:43;5.30;99.90
5711;DHT22;61291;52.524;13.422;2022-11-15T00:40:10;5.30;99.90
5711;DHT22;61291;52.524;13.422;2022-11-15T00:42:35;5.30;99.90
5711;DHT22;61291;52.524;13.422;2022-11-15T00:45:01;5.30;99.90
5711;DHT22;61291;52.524;13.422;2022-11-15T00:47:26;5.20;99.90
5711;DHT22;61291;52.524;13.422;2022-11-15T00:49:52;5.20;99.90
5711;DHT22;61291;52.524;13.422;2022-11-15T00:52:17;5.20;99.90
5711;DHT22;61291;52.524;13.422;2022-11-15T00:54:43;5.20;99.90
5711;DHT22;61291;52.524;13.422;2022-11-15T00:57:08;5.20;99.90
5711;DHT22;61291;52.524;13.422;2022-11-15T00:59:34;5.10;99.90
5711;DHT22;61291;52.524;13.422;2022-11-15T01:01:59;5.20;99.90
5711;DHT22;61291;52.524;13.422;2022-11-15T01:04:25;5.10;99.90
5711;DHT22;61291;52.524;13.422;2022-11-15T01:06:50;5.20;99.90
5711;DHT22;61291;52.524;13.422;2022-11-15T01:09:16;5.10;99.90
5711;DHT22;61291;52.524;13.422;2022-11-15T01:11:41;5.10;99.90
5711;DHT22;61291;52.524;13.422;2022-11-15T01:14:07;5.10;99.90
5711;DHT22;61291;52.524;13.422;2022-11-15T01:16:32;5.00;99.90
5711;DHT22;61291;52.524;13.422;2022-11-15T01:18:58;5.00;99.90
5711;DHT22;61291;52.524;13.422;2022-11-15T01:21:24;5.00;99.90
5711;DHT22;61291;52.524;13.422;2022-11-15T01:23:55;4.90;99.90
5711;DHT22;61291;52.524;13.422;2022-11-15T01:26:21;5.00;99.90
5711;DHT22;61291;52.524;13.422;2022-11-15T01:28:47;4.90;99.90
5711;DHT22;61291;52.524;13.422;2022-11-15T01:31:16;4.90;99.90
5711;DHT22;61291;52.524;13.422;2022-11-15T01:33:42;4.80;99.90
5711;DHT22;61291;52.524;13.422;2022-11-15T01:36:12;4.80;99.90
5711;DHT22;61291;52.524;13.422;2022-11-15T01:38:38;4.90;99.90
5711;DHT22;61291;52.524;13.422;2022-11-15T01:41:03;4.80;99.90
5711;DHT22;61291;52.524;13.422;2022-11-15T01:43:36;4.80;99.90
5711;DHT22;61291;52.524;13.422;2022-11-15T01:46:06;4.90;99.90
5711;DHT22;61291;52.524;13.422;2022-11-15T01:48:33;4.90;99.90
5711;DHT22;61291;52.524;13.422;2022-11-15T01:51:02;4.80;99.90
5711;DHT22;61291;52.524;13.422;2022-11-15T01:53:29;4.80;99.90
5711;DHT22;61291;52.524;13.422;2022-11-15T01:55:57;4.90;99.90
5711;DHT22;61291;52.524;13.422;2022-11-15T01:58:23;4.80;99.90
5711;DHT22;61291;52.524;13.422;2022-11-15T02:00:49;4.70;99.90
5711;DHT22;61291;52.524;13.422;2022-11-15T02:03:15;4.80;99.90
5711;DHT22;61291;52.524;13.422;2022-11-15T02:05:44;4.70;99.90
5711;DHT22;61291;52.524;13.422;2022-11-15T02:08:10;4.70;99.90
5711;DHT22;61291;52.524;13.422;2022-11-15T02:10:48;4.70;99.90
5711;DHT22;61291;52.524;13.422;2022-11-15T02:13:17;4.70;99.90
5711;DHT22;61291;52.524;13.422;2022-11-15T02:16:08;4.70;99.90
5711;DHT22;61291;52.524;13.422;2022-11-15T02:18:38;4.80;99.90
5711;DHT22;61291;52.524;13.422;2022-11-15T02:21:18;4.70;99.90
5711;DHT22;61291;52.524;13.422;2022-11-15T02:24:05;4.80;99.90
5711;DHT22;61291;52.524;13.422;2022-11-15T02:29:45;4.80;99.90
5711;DHT22;61291;52.524;13.422;2022-11-15T02:32:34;4.80;99.90
5711;DHT22;61291;52.524;13.422;2022-11-15T02:35:12;4.80;99.90
5711;DHT22;61291;52.524;13.422;2022-11-15T02:37:48;4.80;99.90
5711;DHT22;61291;52.524;13.422;2022-11-15T02:43:16;4.80;99.90
5711;DHT22;61291;52.524;13.422;2022-11-15T02:46:08;4.70;99.90
5711;DHT22;61291;52.524;13.422;2022-11-15T02:48:37;4.70;99.90
5711;DHT22;61291;52.524;13.422;2022-11-15T02:51:03;4.70;99.90
5711;DHT22;61291;52.524;13.422;2022-11-15T02:53:29;4.80;99.90
5711;DHT22;61291;52.524;13.422;2022-11-15T02:55:56;4.70;99.90
5711;DHT22;61291;52.524;13.422;2022-11-15T02:58:37;4.60;99.90
5711;DHT22;61291;52.524;13.422;2022-11-15T03:01:29;4.60;99.90
5711;DHT22;61291;52.524;13.422;2022-11-15T03:04:25;4.80;99.90
5711;DHT22;61291;52.524;13.422;2022-11-15T03:06:59;4.80;99.90
5711;DHT22;61291;52.524;13.422;2022-11-15T03:12:19;4.80;99.90
5711;DHT22;61291;52.524;13.422;2022-11-15T03:14:56;4.90;99.90
5711;DHT22;61291;52.524;13.422;2022-11-15T03:17:37;4.90;99.90
5711;DHT22;61291;52.524;13.422;2022-11-15T03:20:06;4.90;99.90
5711;DHT22;61291;52.524;13.422;2022-11-15T03:22:39;4.90;99.90
5711;DHT22;61291;52.524;13.422;2022-11-15T03:25:07;4.80;99.90
5711;DHT22;61291;52.524;13.422;2022-11-15T03:27:39;4.80;99.90
5711;DHT22;61291;52.524;13.422;2022-11-15T03:30:07;4.80;99.90
5711;DHT22;61291;52.524;13.422;2022-11-15T03:32:37;4.80;99.90
5711;DHT22;61291;52.524;13.422;2022-11-15T03:35:17;4.90;99.90
5711;DHT22;61291;52.524;13.422;2022-11-15T03:40:57;4.80;99.90
5711;DHT22;61291;52.524;13.422;2022-11-15T03:43:44;4.80;99.90
5711;DHT22;61291;52.524;13.422;2022-11-15T03:46:16;4.90;99.90
5711;DHT22;61291;52.524;13.422;2022-11-15T03:48:50;4.90;99.90
5711;DHT22;61291;52.524;13.422;2022-11-15T03:51:17;4.80;99.90
5711;DHT22;61291;52.524;13.422;2022-11-15T03:53:43;4.80;99.90
5711;DHT22;61291;52.524;13.422;2022-11-15T03:56:08;4.80;99.90
5711;DHT22;61291;52.524;13.422;2022-11-15T03:58:34;4.80;99.90
5711;DHT22;61291;52.524;13.422;2022-11-15T04:00:59;4.80;99.90
5711;DHT22;61291;52.524;13.422;2022-11-15T04:03:25;4.80;99.90
5711;DHT22;61291;52.524;13.422;2022-11-15T04:05:51;4.80;99.90
5711;DHT22;61291;52.524;13.422;2022-11-15T04:08:16;4.80;99.90
5711;DHT22;61291;52.524;13.422;2022-11-15T04:10:42;4.90;99.90
5711;DHT22;61291;52.524;13.422;2022-11-15T04:13:07;4.90;99.90
5711;DHT22;61291;52.524;13.422;2022-11-15T04:15:33;4.90;99.90
5711;DHT22;61291;52.524;13.422;2022-11-15T04:17:58;4.90;99.90
5711;DHT22;61291;52.524;13.422;2022-11-15T04:20:26;4.90;99.90
5711;DHT22;61291;52.524;13.422;2022-11-15T04:23:13;4.80;99.90
5711;DHT22;61291;52.524;13.422;2022-11-15T04:26:01;4.80;99.90
5711;DHT22;61291;52.524;13.422;2022-11-15T04:28:27;4.90;99.90
5711;DHT22;61291;52.524;13.422;2022-11-15T04:30:52;4.90;99.90
5711;DHT22;61291;52.524;13.422;2022-11-15T04:33:18;4.90;99.90
5711;DHT22;61291;52.524;13.422;2022-11-15T04:35:44;4.90;99.90
5711;DHT22;61291;52.524;13.422;2022-11-15T04:38:29;4.90;99.90
5711;DHT22;61291;52.524;13.422;2022-11-15T04:40:55;4.80;99.90
5711;DHT22;61291;52.524;13.422;2022-11-15T04:43:20;4.80;99.90
5711;DHT22;61291;52.524;13.422;2022-11-15T04:45:46;4.80;99.90
5711;DHT22;61291;52.524;13.422;2022-11-15T04:48:11;4.80;99.90
5711;DHT22;61291;52.524;13.422;2022-11-15T04:50:37;4.80;99.90
5711;DHT22;61291;52.524;13.422;2022-11-15T04:53:02;4.80;99.90
5711;DHT22;61291;52.524;13.422;2022-11-15T04:55:28;4.80;99.90
5711;DHT22;61291;52.524;13.422;2022-11-15T04:58:00;4.80;99.90
5711;DHT22;61291;52.524;13.422;2022-11-15T05:00:29;4.80;99.90
5711;DHT22;61291;52.524;13.422;2022-11-15T05:02:56;4.90;99.90
5711;DHT22;61291;52.524;13.422;2022-11-15T05:05:40;4.90;99.90
5711;DHT22;61291;52.524;13.422;2022-11-15T05:08:06;4.90;99.90
5711;DHT22;61291;52.524;13.422;2022-11-15T05:10:31;4.90;99.90
5711;DHT22;61291;52.524;13.422;2022-11-15T05:12:57;4.90;99.90
5711;DHT22;61291;52.524;13.422;2022-11-15T05:15:22;4.90;99.90
5711;DHT22;61291;52.524;13.422;2022-11-15T05:17:47;4.90;99.90
5711;DHT22;61291;52.524;13.422;2022-11-15T05:20:13;4.90;99.90
5711;DHT22;61291;52.524;13.422;2022-11-15T05:22:39;4.90;99.90
5711;DHT22;61291;52.524;13.422;2022-11-15T05:25:06;5.00;99.90
5711;DHT22;61291;52.524;13.422;2022-11-15T05:27:32;5.00;99.90
5711;DHT22;61291;52.524;13.422;2022-11-15T05:29:58;5.00;99.90
5711;DHT22;61291;52.524;13.422;2022-11-15T05:32:23;5.00;99.90
5711;DHT22;61291;52.524;13.422;2022-11-15T05:34:49;5.00;99.90
5711;DHT22;61291;52.524;13.422;2022-11-15T05:37:18;5.00;99.90
5711;DHT22;61291;52.524;13.422;2022-11-15T05:39:46;5.00;99.90
5711;DHT22;61291;52.524;13.422;2022-11-15T05:42:14;5.00;99.90
5711;DHT22;61291;52.524;13.422;2022-11-15T05:44:43;5.00;99.90
5711;DHT22;61291;52.524;13.422;2022-11-15T05:47:13;5.00;99.90
5711;DHT22;61291;52.524;13.422;2022-11-15T05:49:39;5.00;99.90
5711;DHT22;61291;52.524;13.422;2022-11-15T05:52:07;5.00;99.90
5711;DHT22;61291;52.524;13.422;2022-11-15T05:54:35;5.00;99.90
5711;DHT22;61291;52.524;13.422;2022-11-15T05:57:01;5.00;99.90
5711;DHT22;61291;52.524;13.422;2022-11-15T05:59:29;4.90;99.90
5711;DHT22;61291;52.524;13.422;2022-11-15T06:01:56;4.90;99.90
5711;DHT22;61291;52.524;13.422;2022-11-15T06:04:21;4.90;99.90
5711;DHT22;61291;52.524;13.422;2022-11-15T06:06:47;4.90;99.90
5711;DHT22;61291;52.524;13.422;2022-11-15T06:09:12;4.90;99.90
5711;DHT22;61291;52.524;13.422;2022-11-15T06:11:37;4.90;99.90
5711;DHT22;61291;52.524;13.422;2022-11-15T06:14:03;4.90;99.90
5711;DHT22;61291;52.524;13.422;2022-11-15T06:16:29;4.90;99.90
5711;DHT22;61291;52.524;13.422;2022-11-15T06:18:54;4.90;99.90
5711;DHT22;61291;52.524;13.422;2022-11-15T06:21:20;4.90;99.90
5711;DHT22;61291;52.524;13.422;2022-11-15T06:23:45;4.90;99.90
5711;DHT22;61291;52.524;13.422;2022-11-15T06:26:11;4.90;99.90
5711;DHT22;61291;52.524;13.422;2022-11-15T06:28:36;4.90;99.90
5711;DHT22;61291;52.524;13.422;2022-11-15T06:31:06;5.00;99.90
5711;DHT22;61291;52.524;13.422;2022-11-15T06:33:32;5.00;99.90
5711;DHT22;61291;52.524;13.422;2022-11-15T06:36:16;5.00;99.90
5711;DHT22;61291;52.524;13.422;2022-11-15T06:38:43;5.10;99.90
5711;DHT22;61291;52.524;13.422;2022-11-15T06:41:10;5.10;99.90
5711;DHT22;61291;52.524;13.422;2022-11-15T06:43:36;5.20;99.90
5711;DHT22;61291;52.524;13.422;2022-11-15T06:46:04;5.20;99.90
5711;DHT22;61291;52.524;13.422;2022-11-15T06:48:31;5.20;99.90
5711;DHT22;61291;52.524;13.422;2022-11-15T06:51:01;5.30;99.90
5711;DHT22;61291;52.524;13.422;2022-11-15T06:53:27;5.30;99.90
5711;DHT22;61291;52.524;13.422;2022-11-15T06:55:53;5.30;99.90
5711;DHT22;61291;52.524;13.422;2022-11-15T06:58:20;5.40;99.90
5711;DHT22;61291;52.524;13.422;2022-11-15T07:00:45;5.40;99.90
5711;DHT22;61291;52.524;13.422;2022-11-15T07:03:11;5.50;99.90
5711;DHT22;61291;52.524;13.422;2022-11-15T07:05:36;5.60;99.90
5711;DHT22;61291;52.524;13.422;2022-11-15T07:08:02;5.60;99.90
5711;DHT22;61291;52.524;13.422;2022-11-15T07:10:28;5.70;99.90
5711;DHT22;61291;52.524;13.422;2022-11-15T07:12:55;5.70;99.90
5711;DHT22;61291;52.524;13.422;2022-11-15T07:15:23;5.80;99.90
5711;DHT22;61291;52.524;13.422;2022-11-15T07:17:49;5.80;99.90
5711;DHT22;61291;52.524;13.422;2022-11-15T07:20:15;5.90;99.90
5711;DHT22;61291;52.524;13.422;2022-11-15T07:22:41;6.00;99.90
5711;DHT22;61291;52.524;13.422;2022-11-15T07:25:08;6.10;99.90
5711;DHT22;61291;52.524;13.422;2022-11-15T07:27:33;6.20;99.90
5711;DHT22;61291;52.524;13.422;2022-11-15T07:29:59;6.30;99.90
5711;DHT22;61291;52.524;13.422;2022-11-15T07:32:25;6.40;99.90
5711;DHT22;61291;52.524;13.422;2022-11-15T07:34:50;6.40;99.90
5711;DHT22;61291;52.524;13.422;2022-11-15T07:37:16;6.50;99.90
5711;DHT22;61291;52.524;13.422;2022-11-15T07:39:42;6.60;99.90
5711;DHT22;61291;52.524;13.422;2022-11-15T07:42:07;6.60;99.90
5711;DHT22;61291;52.524;13.422;2022-11-15T07:44:51;6.60;99.90
5711;DHT22;61291;52.524;13.422;2022-11-15T07:47:17;6.70;99.90
5711;DHT22;61291;52.524;13.422;2022-11-15T07:49:42;6.80;99.90
5711;DHT22;61291;52.524;13.422;2022-11-15T07:52:08;6.90;99.90
5711;DHT22;61291;52.524;13.422;2022-11-15T07:54:33;7.00;99.90
5711;DHT22;61291;52.524;13.422;2022-11-15T07:56:59;7.00;99.90
5711;DHT22;61291;52.524;13.422;2022-11-15T07:59:24;7.20;99.90
5711;DHT22;61291;52.524;13.422;2022-11-15T08:01:49;7.20;99.90
5711;DHT22;61291;52.524;13.422;2022-11-15T08:04:15;7.30;99.90
5711;DHT22;61291;52.524;13.422;2022-11-15T08:06:40;7.40;99.90
5711;DHT22;61291;52.524;13.422;2022-11-15T08:09:06;7.50;99.90
5711;DHT22;61291;52.524;13.422;2022-11-15T08:11:31;7.60;99.90
5711;DHT22;61291;52.524;13.422;2022-11-15T08:13:58;7.60;99.90
5711;DHT22;61291;52.524;13.422;2022-11-15T08:16:23;7.70;99.90
5711;DHT22;61291;52.524;13.422;2022-11-15T08:18:49;7.70;99.90
5711;DHT22;61291;52.524;13.422;2022-11-15T08:21:18;7.80;99.90
5711;DHT22;61291;52.524;13.422;2022-11-15T08:23:44;7.90;99.90
5711;DHT22;61291;52.524;13.422;2022-11-15T08:26:09;7.90;99.90
5711;DHT22;61291;52.524;13.422;2022-11-15T08:28:35;8.00;99.90
5711;DHT22;61291;52.524;13.422;2022-11-15T08:31:01;8.10;99.90
5711;DHT22;61291;52.524;13.422;2022-11-15T08:33:27;8.20;99.90
5711;DHT22;61291;52.524;13.422;2022-11-15T08:35:56;8.20;99.90
5711;DHT22;61291;52.524;13.422;2022-11-15T08:38:22;8.30;99.90
5711;DHT22;61291;52.524;13.422;2022-11-15T08:40:48;8.40;99.90
5711;DHT22;61291;52.524;13.422;2022-11-15T08:43:13;8.40;99.90
5711;DHT22;61291;52.524;13.422;2022-11-15T08:45:39;8.50;99.90
5711;DHT22;61291;52.524;13.422;2022-11-15T08:48:04;8.60;99.90
5711;DHT22;61291;52.524;13.422;2022-11-15T08:50:31;8.60;99.90
5711;DHT22;61291;52.524;13.422;2022-11-15T08:52:56;8.70;99.90
5711;DHT22;61291;52.524;13.422;2022-11-15T08:55:22;8.80;99.90
5711;DHT22;61291;52.524;13.422;2022-11-15T08:57:47;8.80;99.90
5711;DHT22;61291;52.524;13.422;2022-11-15T09:00:14;8.90;99.90
5711;DHT22;61291;52.524;13.422;2022-11-15T09:02:39;9.00;99.90
5711;DHT22;61291;52.524;13.422;2022-11-15T09:05:06;9.00;99.90
5711;DHT22;61291;52.524;13.422;2022-11-15T09:07:31;9.10;99.90
5711;DHT22;61291;52.524;13.422;2022-11-15T09:09:57;9.10;99.90
5711;DHT22;61291;52.524;13.422;2022-11-15T09:12:23;9.20;99.90
5711;DHT22;61291;52.524;13.422;2022-11-15T09:14:49;9.20;99.90
5711;DHT22;61291;52.524;13.422;2022-11-15T09:17:14;9.30;99.90
5711;DHT22;61291;52.524;13.422;2022-11-15T09:19:39;9.40;99.90
5711;DHT22;61291;52.524;13.422;2022-11-15T09:22:06;9.40;99.90
5711;DHT22;61291;52.524;13.422;2022-11-15T09:24:32;9.50;99.90
5711;DHT22;61291;52.524;13.422;2022-11-15T09:26:57;9.50;99.90
5711;DHT22;61291;52.524;13.422;2022-11-15T09:29:23;9.60;99.90
5711;DHT22;61291;52.524;13.422;2022-11-15T09:31:48;9.60;99.90
5711;DHT22;61291;52.524;13.422;2022-11-15T09:34:16;9.70;99.90
5711;DHT22;61291;52.524;13.422;2022-11-15T09:36:42;9.80;99.90
5711;DHT22;61291;52.524;13.422;2022-11-15T09:39:07;9.90;99.90
5711;DHT22;61291;52.524;13.422;2022-11-15T09:41:58;9.90;99.90
5711;DHT22;61291;52.524;13.422;2022-11-15T09:44:37;10.00;99.90
5711;DHT22;61291;52.524;13.422;2022-11-15T09:47:28;10.10;99.90
5711;DHT22;61291;52.524;13.422;2022-11-15T09:49:59;10.20;99.90
5711;DHT22;61291;52.524;13.422;2022-11-15T09:52:25;10.30;99.90
5711;DHT22;61291;52.524;13.422;2022-11-15T09:54:52;10.40;99.90
5711;DHT22;61291;52.524;13.422;2022-11-15T10:00:22;10.60;99.90
5711;DHT22;61291;52.524;13.422;2022-11-15T10:03:26;10.60;99.90
5711;DHT22;61291;52.524;13.422;2022-11-15T10:05:57;10.70;99.90
5711;DHT22;61291;52.524;13.422;2022-11-15T10:08:31;10.80;99.90
5711;DHT22;61291;52.524;13.422;2022-11-15T10:11:03;10.80;99.90
5711;DHT22;61291;52.524;13.422;2022-11-15T10:13:33;10.90;99.90
5711;DHT22;61291;52.524;13.422;2022-11-15T10:16:13;11.00;99.90
5711;DHT22;61291;52.524;13.422;2022-11-15T10:22:06;11.10;99.90
5711;DHT22;61291;52.524;13.422;2022-11-15T10:24:41;11.20;99.90
5711;DHT22;61291;52.524;13.422;2022-11-15T10:27:15;11.30;99.90
5711;DHT22;61291;52.524;13.422;2022-11-15T10:29:49;11.30;99.90
5711;DHT22;61291;52.524;13.422;2022-11-15T10:32:18;11.30;99.90
5711;DHT22;61291;52.524;13.422;2022-11-15T10:34:45;11.40;99.90
5711;DHT22;61291;52.524;13.422;2022-11-15T10:37:10;11.40;99.90
5711;DHT22;61291;52.524;13.422;2022-11-15T10:39:36;11.50;99.90
5711;DHT22;61291;52.524;13.422;2022-11-15T10:42:18;11.60;99.90
5711;DHT22;61291;52.524;13.422;2022-11-15T10:44:50;11.60;99.90
5711;DHT22;61291;52.524;13.422;2022-11-15T10:47:25;11.70;99.90
5711;DHT22;61291;52.524;13.422;2022-11-15T10:49:58;11.70;99.90
5711;DHT22;61291;52.524;13.422;2022-11-15T10:52:23;11.80;99.90
5711;DHT22;61291;52.524;13.422;2022-11-15T10:57:27;11.90;99.90
5711;DHT22;61291;52.524;13.422;2022-11-15T11:00:03;11.90;99.90
5711;DHT22;61291;52.524;13.422;2022-11-15T11:02:41;11.90;99.90
5711;DHT22;61291;52.524;13.422;2022-11-15T11:05:29;12.00;99.90
5711;DHT22;61291;52.524;13.422;2022-11-15T11:10:28;12.00;99.90
5711;DHT22;61291;52.524;13.422;2022-11-15T11:12:54;12.10;99.90
5711;DHT22;61291;52.524;13.422;2022-11-15T11:15:20;12.20;99.90
5711;DHT22;61291;52.524;13.422;2022-11-15T11:18:07;12.30;99.90
5711;DHT22;61291;52.524;13.422;2022-11-15T11:20:40;12.40;99.90
5711;DHT22;61291;52.524;13.422;2022-11-15T11:23:36;12.50;99.90
5711;DHT22;61291;52.524;13.422;2022-11-15T11:29:09;12.60;99.90
5711;DHT22;61291;52.524;13.422;2022-11-15T11:34:50;12.60;99.90
5711;DHT22;61291;52.524;13.422;2022-11-15T11:37:40;12.70;99.90
5711;DHT22;61291;52.524;13.422;2022-11-15T11:40:32;12.70;99.90
5711;DHT22;61291;52.524;13.422;2022-11-15T11:43:17;12.80;99.90
5711;DHT22;61291;52.524;13.422;2022-11-15T11:48:50;12.90;99.90
5711;DHT22;61291;52.524;13.422;2022-11-15T11:51:43;12.90;99.90
5711;DHT22;61291;52.524;13.422;2022-11-15T11:57:04;12.90;99.90
5711;DHT22;61291;52.524;13.422;2022-11-15T11:59:43;12.90;99.90
5711;DHT22;61291;52.524;13.422;2022-11-15T12:02:31;13.00;99.90
5711;DHT22;61291;52.524;13.422;2022-11-15T12:05:16;13.00;99.90
5711;DHT22;61291;52.524;13.422;2022-11-15T12:07:46;13.10;99.90
5711;DHT22;61291;52.524;13.422;2022-11-15T12:10:24;13.10;99.90
5711;DHT22;61291;52.524;13.422;2022-11-15T12:13:19;13.20;99.90
5711;DHT22;61291;52.524;13.422;2022-11-15T12:15:59;13.20;99.90
5711;DHT22;61291;52.524;13.422;2022-11-15T12:18:28;13.20;99.90
5711;DHT22;61291;52.524;13.422;2022-11-15T12:20:59;13.30;99.90
5711;DHT22;61291;52.524;13.422;2022-11-15T12:23:29;13.30;99.90
5711;DHT22;61291;52.524;13.422;2022-11-15T12:26:08;13.40;99.90
5711;DHT22;61291;52.524;13.422;2022-11-15T12:31:39;13.50;99.90
5711;DHT22;61291;52.524;13.422;2022-11-15T12:36:48;13.60;99.90
5711;DHT22;61291;52.524;13.422;2022-11-15T12:39:15;13.60;99.90
5711;DHT22;61291;52.524;13.422;2022-11-15T12:41:43;13.60;99.90
5711;DHT22;61291;52.524;13.422;2022-11-15T12:44:16;13.60;99.90
5711;DHT22;61291;52.524;13.422;2022-11-15T12:46:59;13.60;99.90
5711;DHT22;61291;52.524;13.422;2022-11-15T12:59:52;13.70;99.90
5711;DHT22;61291;52.524;13.422;2022-11-15T13:02:36;13.80;99.90
5711;DHT22;61291;52.524;13.422;2022-11-15T13:08:01;13.90;99.90
5711;DHT22;61291;52.524;13.422;2022-11-15T13:12:56;13.90;99.90
5711;DHT22;61291;52.524;13.422;2022-11-15T13:18:37;13.90;99.90
5711;DHT22;61291;52.524;13.422;2022-11-15T13:21:16;14.00;99.90
5711;DHT22;61291;52.524;13.422;2022-11-15T13:24:03;14.00;99.90
5711;DHT22;61291;52.524;13.422;2022-11-15T13:26:28;14.00;99.90
5711;DHT22;61291;52.524;13.422;2022-11-15T13:28:54;14.00;99.90
5711;DHT22;61291;52.524;13.422;2022-11-15T13:31:36;14.00;99.90
5711;DHT22;61291;52.524;13.422;2022-11-15T13:34:16;14.00;99.90
5711;DHT22;61291;52.524;13.422;2022-11-15T13:36:42;13.90;99.90
5711;DHT22;61291;52.524;13.422;2022-11-15T13:41:52;13.90;99.90
5711;DHT22;61291;52.524;13.422;2022-11-15T13:44:32;13.90;99.90
5711;DHT22;61291;52.524;13.422;2022-11-15T13:47:19;14.00;99.90
5711;DHT22;61291;52.524;13.422;2022-11-15T13:49:44;14.00;99.90
5711;DHT22;61291;52.524;13.422;2022-11-15T13:52:14;14.00;99.90
5711;DHT22;61291;52.524;13.422;2022-11-15T13:55:00;14.00;99.90
5711;DHT22;61291;52.524;13.422;2022-11-15T13:57:48;14.00;99.90
5711;DHT22;61291;52.524;13.422;2022-11-15T14:03:22;13.90;99.90
5711;DHT22;61291;52.524;13.422;2022-11-15T14:06:07;13.80;99.90
5711;DHT22;61291;52.524;13.422;2022-11-15T14:08:36;13.80;99.90
5711;DHT22;61291;52.524;13.422;2022-11-15T14:11:12;13.80;99.90
5711;DHT22;61291;52.524;13.422;2022-11-15T14:13:39;13.70;99.90
5711;DHT22;61291;52.524;13.422;2022-11-15T14:16:16;13.60;99.90
5711;DHT22;61291;52.524;13.422;2022-11-15T14:18:51;13.60;99.90
5711;DHT22;61291;52.524;13.422;2022-11-15T14:21:18;13.50;99.90
5711;DHT22;61291;52.524;13.422;2022-11-15T14:23:44;13.40;99.90
5711;DHT22;61291;52.524;13.422;2022-11-15T14:26:30;13.40;99.90
5711;DHT22;61291;52.524;13.422;2022-11-15T14:28:56;13.30;99.90
5711;DHT22;61291;52.524;13.422;2022-11-15T14:31:22;13.10;99.90
5711;DHT22;61291;52.524;13.422;2022-11-15T14:33:47;13.00;99.90
5711;DHT22;61291;52.524;13.422;2022-11-15T14:36:19;13.00;99.90
5711;DHT22;61291;52.524;13.422;2022-11-15T14:38:45;12.90;99.90
5711;DHT22;61291;52.524;13.422;2022-11-15T14:41:22;12.80;99.90
5711;DHT22;61291;52.524;13.422;2022-11-15T14:43:50;12.70;99.90
5711;DHT22;61291;52.524;13.422;2022-11-15T14:46:16;12.60;99.90
5711;DHT22;61291;52.524;13.422;2022-11-15T14:48:42;12.50;99.90
5711;DHT22;61291;52.524;13.422;2022-11-15T14:51:16;12.40;99.90
5711;DHT22;61291;52.524;13.422;2022-11-15T14:53:43;12.30;99.90
5711;DHT22;61291;52.524;13.422;2022-11-15T14:56:09;12.20;99.90
5711;DHT22;61291;52.524;13.422;2022-11-15T14:58:35;12.10;99.90
5711;DHT22;61291;52.524;13.422;2022-11-15T15:01:19;12.00;99.90
5711;DHT22;61291;52.524;13.422;2022-11-15T15:03:45;11.90;99.90
5711;DHT22;61291;52.524;13.422;2022-11-15T15:06:10;11.80;99.90
5711;DHT22;61291;52.524;13.422;2022-11-15T15:08:38;11.70;99.90
5711;DHT22;61291;52.524;13.422;2022-11-15T15:11:14;11.60;99.90
5711;DHT22;61291;52.524;13.422;2022-11-15T15:13:40;11.50;99.90
5711;DHT22;61291;52.524;13.422;2022-11-15T15:16:06;11.40;99.90
5711;DHT22;61291;52.524;13.422;2022-11-15T15:18:31;11.30;99.90
5711;DHT22;61291;52.524;13.422;2022-11-15T15:20:58;11.30;99.90
5711;DHT22;61291;52.524;13.422;2022-11-15T15:23:32;11.20;99.90
5711;DHT22;61291;52.524;13.422;2022-11-15T15:25:58;11.10;99.90
5711;DHT22;61291;52.524;13.422;2022-11-15T15:28:24;11.00;99.90
5711;DHT22;61291;52.524;13.422;2022-11-15T15:30:49;10.90;99.90
5711;DHT22;61291;52.524;13.422;2022-11-15T15:33:15;10.80;99.90
5711;DHT22;61291;52.524;13.422;2022-11-15T15:35:41;10.80;99.90
5711;DHT22;61291;52.524;13.422;2022-11-15T15:38:11;10.70;99.90
5711;DHT22;61291;52.524;13.422;2022-11-15T15:40:37;10.60;99.90
5711;DHT22;61291;52.524;13.422;2022-11-15T15:43:02;10.50;99.90
5711;DHT22;61291;52.524;13.422;2022-11-15T15:45:28;10.40;99.90
5711;DHT22;61291;52.524;13.422;2022-11-15T15:47:55;10.30;99.90
5711;DHT22;61291;52.524;13.422;2022-11-15T15:50:27;10.30;99.90
5711;DHT22;61291;52.524;13.422;2022-11-15T15:52:55;10.30;99.90
5711;DHT22;61291;52.524;13.422;2022-11-15T15:55:22;10.20;99.90
5711;DHT22;61291;52.524;13.422;2022-11-15T15:57:48;10.10;99.90
5711;DHT22;61291;52.524;13.422;2022-11-15T16:00:14;10.10;99.90
5711;DHT22;61291;52.524;13.422;2022-11-15T16:02:40;10.10;99.90
5711;DHT22;61291;52.524;13.422;2022-11-15T16:05:07;10.10;99.90
5711;DHT22;61291;52.524;13.422;2022-11-15T16:07:33;10.10;99.90
5711;DHT22;61291;52.524;13.422;2022-11-15T16:09:58;10.00;99.90
5711;DHT22;61291;52.524;13.422;2022-11-15T16:12:33;10.00;99.90
5711;DHT22;61291;52.524;13.422;2022-11-15T16:14:59;10.00;99.90
5711;DHT22;61291;52.524;13.422;2022-11-15T16:17:26;10.00;99.90
5711;DHT22;61291;52.524;13.422;2022-11-15T16:19:53;10.00;99.90
5711;DHT22;61291;52.524;13.422;2022-11-15T16:22:18;10.00;99.90
5711;DHT22;61291;52.524;13.422;2022-11-15T16:24:44;9.90;99.90
5711;DHT22;61291;52.524;13.422;2022-11-15T16:27:14;9.90;99.90
5711;DHT22;61291;52.524;13.422;2022-11-15T16:29:41;9.90;99.90
5711;DHT22;61291;52.524;13.422;2022-11-15T16:32:06;9.80;99.90
5711;DHT22;61291;52.524;13.422;2022-11-15T16:34:32;9.80;99.90
5711;DHT22;61291;52.524;13.422;2022-11-15T16:36:57;9.80;99.90
5711;DHT22;61291;52.524;13.422;2022-11-15T16:39:23;9.80;99.90
5711;DHT22;61291;52.524;13.422;2022-11-15T16:41:48;9.80;99.90
5711;DHT22;61291;52.524;13.422;2022-11-15T16:44:14;9.80;99.90
5711;DHT22;61291;52.524;13.422;2022-11-15T16:46:42;9.70;99.90
5711;DHT22;61291;52.524;13.422;2022-11-15T16:49:14;9.70;99.90
5711;DHT22;61291;52.524;13.422;2022-11-15T16:51:41;9.70;99.90
5711;DHT22;61291;52.524;13.422;2022-11-15T16:54:07;9.60;99.90
5711;DHT22;61291;52.524;13.422;2022-11-15T16:56:33;9.50;99.90
5711;DHT22;61291;52.524;13.422;2022-11-15T16:58:59;9.50;99.90
5711;DHT22;61291;52.524;13.422;2022-11-15T17:01:27;9.40;99.90